Time;durP1;ratioP1;P1;durP2;ratioP2;P2;SDS_P1;SDS_P2;PMS_P1;PMS_P2;Temp;Humidity;BMP_temperature;BMP_pressure;BME280_temperature;BME280_humidity;BME280_pressure;Samples;Min_cycle;Max_cycle;Signal;HPM_P1;HPM_P2
2022/04/27 00:01:41;;;;;;;8.00;6.68;;;10.40;79.60;;;;;;5057974;28;20040;-63
2022/04/27 00:04:07;;;;;;;6.82;6.13;;;10.40;79.60;;;;;;5057225;28;20037;-63
2022/04/27 00:06:33;;;;;;;7.15;6.40;;;10.40;79.60;;;;;;5054711;28;20040;-63
2022/04/27 00:08:58;;;;;;;7.05;6.35;;;10.40;79.70;;;;;;5058421;28;20037;-63
2022/04/27 00:11:24;;;;;;;7.72;6.40;;;10.50;79.80;;;;;;5053758;28;20045;-64
2022/04/27 00:13:50;;;;;;;7.45;6.68;;;10.40;79.70;;;;;;5057792;28;20109;-63
2022/04/27 00:16:15;;;;;;;7.03;6.32;;;10.50;79.80;;;;;;5058504;28;20040;-64
2022/04/27 00:18:41;;;;;;;8.70;6.40;;;10.50;79.70;;;;;;5057461;28;20492;-63
2022/04/27 00:21:06;;;;;;;7.25;6.53;;;10.50;79.70;;;;;;5059541;28;20037;-63
2022/04/27 00:23:34;;;;;;;7.18;6.47;;;10.40;79.70;;;;;;5059394;28;20109;-64
2022/04/27 00:26:00;;;;;;;7.65;6.78;;;10.50;79.90;;;;;;5057252;28;20025;-63
2022/04/27 00:28:26;;;;;;;7.68;6.88;;;10.50;80.00;;;;;;5054773;28;20040;-63
2022/04/27 00:30:51;;;;;;;7.65;6.57;;;10.50;80.00;;;;;;5053188;28;20406;-63
2022/04/27 00:33:17;;;;;;;7.88;6.75;;;10.50;80.00;;;;;;5055874;28;20032;-64
2022/04/27 00:35:42;;;;;;;7.55;6.60;;;10.50;80.00;;;;;;5052037;28;20039;-64
2022/04/27 00:38:08;;;;;;;7.18;6.47;;;10.50;80.00;;;;;;5056496;28;20041;-63
2022/04/27 00:40:34;;;;;;;8.02;6.50;;;10.50;79.90;;;;;;5053531;28;20494;-62
2022/04/27 00:42:59;;;;;;;8.23;6.30;;;10.60;80.00;;;;;;5056331;28;20036;-63
2022/04/27 00:45:25;;;;;;;7.80;6.43;;;10.50;79.80;;;;;;5052796;28;20597;-64
2022/04/27 00:47:51;;;;;;;7.47;6.72;;;10.60;79.80;;;;;;5055713;28;20045;-63
2022/04/27 00:50:17;;;;;;;7.90;7.10;;;10.50;79.70;;;;;;5053215;28;20528;-63
2022/04/27 00:52:42;;;;;;;8.32;6.85;;;10.50;79.80;;;;;;5056220;28;20067;-61
2022/04/27 00:55:09;;;;;;;8.60;7.20;;;10.50;79.80;;;;;;5056484;28;20559;-64
2022/04/27 00:57:36;;;;;;;8.20;7.28;;;10.50;79.80;;;;;;5053422;28;20052;-64
2022/04/27 01:00:03;;;;;;;8.57;6.97;;;10.40;79.80;;;;;;5055365;28;20032;-64
2022/04/27 01:02:28;;;;;;;7.55;6.72;;;10.40;79.90;;;;;;5056735;28;20489;-64
2022/04/27 01:04:54;;;;;;;8.15;7.15;;;10.40;80.00;;;;;;5055007;28;20118;-61
2022/04/27 01:07:20;;;;;;;9.05;7.20;;;10.40;80.00;;;;;;5053637;28;20060;-64
2022/04/27 01:09:46;;;;;;;9.70;7.47;;;10.40;80.00;;;;;;5055073;28;20033;-64
2022/04/27 01:12:11;;;;;;;9.15;8.07;;;10.40;80.00;;;;;;5052657;28;20053;-63
2022/04/27 01:14:45;;;;;;;8.95;7.18;;;10.40;80.00;;;;;;5052665;28;20588;-64
2022/04/27 01:17:11;;;;;;;8.27;7.43;;;10.40;80.20;;;;;;5054071;28;20044;-64
2022/04/27 01:19:37;;;;;;;9.30;8.13;;;10.40;80.00;;;;;;5054806;28;20036;-63
2022/04/27 01:22:04;;;;;;;9.15;7.63;;;10.40;80.00;;;;;;5056286;28;20040;-64
2022/04/27 01:24:30;;;;;;;8.95;7.55;;;10.40;80.00;;;;;;5054665;28;20039;-64
2022/04/27 01:26:56;;;;;;;8.27;7.40;;;10.40;80.00;;;;;;5052735;28;20041;-62
2022/04/27 01:29:22;;;;;;;8.57;7.68;;;10.40;80.00;;;;;;5055793;28;20047;-64
2022/04/27 01:31:49;;;;;;;8.80;7.85;;;10.40;79.90;;;;;;5055539;28;20032;-64
2022/04/27 01:34:15;;;;;;;8.82;7.93;;;10.40;79.80;;;;;;5052608;28;20583;-64
2022/04/27 01:36:41;;;;;;;8.82;7.88;;;10.40;79.70;;;;;;5053917;28;20056;-64
2022/04/27 01:39:07;;;;;;;8.68;7.78;;;10.40;79.80;;;;;;5053662;28;20116;-63
2022/04/27 01:41:33;;;;;;;8.70;7.80;;;10.40;79.90;;;;;;5054562;28;20071;-63
2022/04/27 01:43:59;;;;;;;8.35;7.45;;;10.40;80.00;;;;;;5051338;28;20039;-64
2022/04/27 01:46:26;;;;;;;8.40;7.55;;;10.40;80.10;;;;;;5052938;28;20025;-62
2022/04/27 01:48:52;;;;;;;8.95;8.00;;;10.40;80.20;;;;;;5055849;28;20052;-64
2022/04/27 01:51:18;;;;;;;8.93;7.70;;;10.40;80.10;;;;;;5052001;28;20517;-64
2022/04/27 01:56:31;;;;;;;7.97;7.18;;;10.40;80.20;;;;;;5053502;28;20516;-62
2022/04/27 01:58:57;;;;;;;10.10;7.80;;;10.40;80.30;;;;;;5053495;28;20028;-63
2022/04/27 02:01:25;;;;;;;9.30;8.00;;;10.40;80.20;;;;;;5053271;28;20029;-63
2022/04/27 02:03:51;;;;;;;9.60;7.90;;;10.40;80.20;;;;;;5053966;28;20038;-64
2022/04/27 02:06:19;;;;;;;10.07;8.35;;;10.40;80.10;;;;;;5052063;28;20064;-64
2022/04/27 02:08:46;;;;;;;8.82;7.93;;;10.50;80.10;;;;;;5054583;28;20478;-63
2022/04/27 02:11:12;;;;;;;12.15;8.77;;;10.50;80.10;;;;;;5052567;28;20031;-64
2022/04/27 02:13:37;;;;;;;8.80;7.90;;;10.50;80.00;;;;;;5052628;28;20029;-63
2022/04/27 02:16:04;;;;;;;8.50;7.60;;;10.50;80.00;;;;;;5052483;28;22619;-63
2022/04/27 02:18:29;;;;;;;9.55;7.80;;;10.50;79.90;;;;;;5052861;28;20117;-64
2022/04/27 02:20:58;;;;;;;10.05;8.50;;;10.50;79.90;;;;;;5053444;28;20032;-64
2022/04/27 02:23:24;;;;;;;9.27;8.30;;;10.50;79.80;;;;;;5056857;28;20037;-64
2022/04/27 02:25:51;;;;;;;9.43;8.32;;;10.50;79.80;;;;;;5052720;28;20521;-63
2022/04/27 02:28:16;;;;;;;10.55;8.38;;;10.40;79.80;;;;;;5054843;28;20381;-63
2022/04/27 02:30:42;;;;;;;10.10;8.10;;;10.40;79.70;;;;;;5053521;28;20025;-60
2022/04/27 02:33:07;;;;;;;9.38;8.43;;;10.40;79.80;;;;;;5055836;28;20039;-64
2022/04/27 02:35:33;;;;;;;9.45;8.45;;;10.40;79.90;;;;;;5053802;28;20565;-64
2022/04/27 02:37:59;;;;;;;9.70;8.43;;;10.40;80.00;;;;;;5053493;28;20748;-63
2022/04/27 02:40:24;;;;;;;9.05;7.80;;;10.30;79.80;;;;;;5056080;28;20106;-63
2022/04/27 02:42:52;;;;;;;10.68;9.00;;;10.30;79.80;;;;;;5054863;28;20044;-64
2022/04/27 02:45:18;;;;;;;10.25;9.00;;;10.30;79.80;;;;;;5051327;28;20024;-63
2022/04/27 02:47:43;;;;;;;10.88;9.63;;;10.30;79.80;;;;;;5051386;28;20531;-63
2022/04/27 02:52:53;;;;;;;11.50;10.00;;;10.30;79.80;;;;;;5052530;28;20082;-64
2022/04/27 02:55:19;;;;;;;10.43;9.27;;;10.20;79.80;;;;;;5069166;28;20033;-64
2022/04/27 02:57:44;;;;;;;12.60;9.60;;;10.20;80.00;;;;;;5052908;28;20082;-62
2022/04/27 03:00:10;;;;;;;12.00;9.65;;;10.20;80.10;;;;;;5053487;28;20257;-64
2022/04/27 03:02:36;;;;;;;10.60;9.45;;;10.20;80.20;;;;;;5055786;28;20029;-63
2022/04/27 03:05:01;;;;;;;10.88;9.43;;;10.20;80.30;;;;;;5053562;28;20463;-63
2022/04/27 03:07:28;;;;;;;10.27;9.18;;;10.20;81.20;;;;;;5055243;28;20434;-64
2022/04/27 03:09:55;;;;;;;10.82;9.07;;;10.10;80.40;;;;;;5057367;28;20036;-63
2022/04/27 03:12:21;;;;;;;11.43;9.68;;;10.10;80.50;;;;;;5054106;28;20120;-64
2022/04/27 03:14:47;;;;;;;10.05;8.77;;;10.10;80.50;;;;;;5056669;28;20135;-64
2022/04/27 03:17:12;;;;;;;11.77;9.40;;;10.10;80.60;;;;;;5055765;28;20383;-63
2022/04/27 03:19:38;;;;;;;10.32;9.00;;;10.10;80.70;;;;;;5056498;28;20093;-61
2022/04/27 03:22:04;;;;;;;9.98;8.85;;;10.10;80.80;;;;;;5059217;28;20029;-63
2022/04/27 03:24:30;;;;;;;10.30;9.02;;;10.00;80.80;;;;;;5056253;28;20024;-63
2022/04/27 03:26:55;;;;;;;10.40;8.18;;;10.00;80.90;;;;;;5055327;28;20391;-63
2022/04/27 03:29:21;;;;;;;10.98;9.20;;;10.00;81.10;;;;;;5056589;28;20041;-63
2022/04/27 03:31:47;;;;;;;10.35;8.77;;;10.00;81.20;;;;;;5057986;28;20468;-63
2022/04/27 03:34:12;;;;;;;10.18;8.55;;;10.00;81.20;;;;;;5056765;28;20029;-63
2022/04/27 03:36:38;;;;;;;11.90;9.02;;;10.00;81.00;;;;;;5056429;28;20040;-63
2022/04/27 03:39:04;;;;;;;10.00;8.82;;;10.00;81.10;;;;;;5058355;28;20029;-63
2022/04/27 03:41:30;;;;;;;9.70;8.70;;;10.00;81.00;;;;;;5058193;28;20051;-63
2022/04/27 03:43:55;;;;;;;10.82;9.05;;;10.00;81.00;;;;;;5058456;28;20039;-63
2022/04/27 03:46:21;;;;;;;10.05;8.77;;;10.00;81.00;;;;;;5056626;28;20136;-63
2022/04/27 03:48:47;;;;;;;11.13;8.57;;;10.00;80.80;;;;;;5056272;28;20117;-63
2022/04/27 03:51:13;;;;;;;10.52;8.35;;;10.00;80.80;;;;;;5057540;28;20720;-63
2022/04/27 03:53:39;;;;;;;9.80;8.80;;;10.00;80.90;;;;;;5056446;28;20622;-64
2022/04/27 03:56:08;;;;;;;10.23;9.20;;;10.00;81.00;;;;;;5057582;28;20097;-63
2022/04/27 03:58:33;;;;;;;11.20;9.48;;;10.00;81.10;;;;;;5055923;28;20517;-63
2022/04/27 04:00:59;;;;;;;10.98;9.50;;;10.00;81.00;;;;;;5055592;28;20039;-63
2022/04/27 04:03:25;;;;;;;12.25;10.20;;;10.00;81.00;;;;;;5058046;28;20033;-63
2022/04/27 04:05:51;;;;;;;12.98;10.07;;;10.00;81.00;;;;;;5059885;28;20037;-64
2022/04/27 04:08:16;;;;;;;10.68;9.13;;;10.00;81.10;;;;;;5059246;28;20497;-64
2022/04/27 04:10:42;;;;;;;13.02;9.70;;;10.00;81.00;;;;;;5056478;28;20040;-63
2022/04/27 04:13:08;;;;;;;13.18;9.93;;;10.00;81.00;;;;;;5059968;28;20071;-63
2022/04/27 04:15:37;;;;;;;12.23;9.98;;;10.00;80.90;;;;;;5060592;28;20090;-60
2022/04/27 04:18:06;;;;;;;12.27;9.63;;;9.90;80.90;;;;;;5057322;28;20045;-64
2022/04/27 04:20:31;;;;;;;12.05;10.07;;;9.90;81.00;;;;;;5058060;28;20025;-64
2022/04/27 04:22:57;;;;;;;12.10;10.23;;;9.90;81.20;;;;;;5056056;28;20040;-63
2022/04/27 04:30:52;;;;;;;10.52;8.75;;;9.90;81.20;;;;;;5053642;28;20105;-63
2022/04/27 04:33:17;;;;;;;9.85;8.52;;;9.90;81.10;;;;;;5046786;28;20588;-63
2022/04/27 04:35:43;;;;;;;10.45;8.60;;;9.90;81.10;;;;;;5057967;28;20112;-63
2022/04/27 04:38:09;;;;;;;10.48;8.90;;;10.00;81.10;;;;;;5062423;28;20756;-62
2022/04/27 04:40:35;;;;;;;12.00;9.25;;;9.90;81.00;;;;;;5055088;28;20405;-62
2022/04/27 04:43:01;;;;;;;11.30;9.32;;;9.90;81.20;;;;;;5057289;28;20446;-63
2022/04/27 04:45:27;;;;;;;10.85;8.88;;;9.90;81.20;;;;;;5056870;28;20094;-63
2022/04/27 04:47:53;;;;;;;11.07;9.27;;;9.90;81.30;;;;;;5056694;28;20444;-61
2022/04/27 04:50:18;;;;;;;10.48;8.65;;;9.90;81.30;;;;;;5057996;28;20046;-63
2022/04/27 04:52:46;;;;;;;11.07;9.00;;;9.80;81.50;;;;;;5056837;28;20050;-64
2022/04/27 04:55:12;;;;;;;10.93;9.27;;;9.90;81.70;;;;;;5060443;28;20049;-63
2022/04/27 04:57:38;;;;;;;12.65;10.57;;;9.80;81.90;;;;;;5057923;28;20033;-62
2022/04/27 05:00:05;;;;;;;11.20;9.70;;;9.90;82.00;;;;;;5054980;28;20437;-64
2022/04/27 05:02:31;;;;;;;11.63;9.35;;;9.90;82.10;;;;;;5057971;28;20021;-63
2022/04/27 05:04:58;;;;;;;12.30;9.35;;;9.90;82.10;;;;;;5057301;28;20032;-63
2022/04/27 05:07:24;;;;;;;11.93;8.57;;;9.90;82.20;;;;;;5054855;28;21071;-64
2022/04/27 05:09:49;;;;;;;11.75;9.60;;;10.00;82.20;;;;;;5055785;28;20041;-64
2022/04/27 05:12:15;;;;;;;12.85;9.30;;;10.00;82.20;;;;;;5055787;28;20055;-63
2022/04/27 05:14:41;;;;;;;11.38;9.57;;;10.00;82.10;;;;;;5057631;28;20040;-64
2022/04/27 05:17:06;;;;;;;10.68;9.23;;;10.10;82.10;;;;;;5055397;28;20048;-64
2022/04/27 05:19:32;;;;;;;14.00;10.50;;;10.10;82.00;;;;;;5057236;28;20028;-63
2022/04/27 05:21:57;;;;;;;12.82;10.20;;;10.10;82.00;;;;;;5055320;28;20081;-64
2022/04/27 05:24:23;;;;;;;12.43;10.25;;;10.10;82.00;;;;;;5054479;28;20033;-63
2022/04/27 05:26:49;;;;;;;12.30;10.55;;;10.10;82.00;;;;;;5056530;28;20083;-63
2022/04/27 05:31:59;;;;;;;11.55;9.50;;;10.20;81.90;;;;;;5056823;28;20047;-64
2022/04/27 05:34:26;;;;;;;14.50;11.90;;;10.20;81.60;;;;;;5054027;28;20135;-62
2022/04/27 05:36:52;;;;;;;16.27;12.02;;;10.20;81.50;;;;;;5052785;28;20041;-63
2022/04/27 05:39:20;;;;;;;14.95;11.30;;;10.20;81.60;;;;;;5059470;28;20044;-63
2022/04/27 05:41:50;;;;;;;12.38;10.15;;;10.20;82.50;;;;;;5057635;28;20066;-63
2022/04/27 05:44:18;;;;;;;13.02;11.50;;;10.20;81.70;;;;;;5057069;28;20028;-64
2022/04/27 05:46:44;;;;;;;13.65;11.27;;;10.30;81.70;;;;;;5056566;28;20028;-64
2022/04/27 05:49:10;;;;;;;13.55;11.05;;;10.30;81.90;;;;;;5056589;28;20041;-63
2022/04/27 05:51:36;;;;;;;13.35;11.15;;;10.30;82.00;;;;;;5058377;28;20086;-64
2022/04/27 05:54:02;;;;;;;14.02;11.82;;;10.30;82.00;;;;;;5056609;28;20456;-64
2022/04/27 05:56:27;;;;;;;14.30;12.43;;;10.40;82.10;;;;;;5055008;28;20060;-64
2022/04/27 05:58:53;;;;;;;14.20;11.45;;;10.40;82.00;;;;;;5056798;28;20047;-63
2022/04/27 06:01:19;;;;;;;13.25;11.38;;;10.40;82.00;;;;;;5055707;28;20047;-63
2022/04/27 06:03:45;;;;;;;13.38;11.65;;;10.50;82.20;;;;;;5056054;28;20084;-64
2022/04/27 06:06:10;;;;;;;14.02;11.73;;;10.50;82.20;;;;;;5058794;28;20463;-64
2022/04/27 06:08:36;;;;;;;14.75;11.93;;;10.50;82.10;;;;;;5054493;28;20036;-63
2022/04/27 06:11:02;;;;;;;15.23;11.98;;;10.50;82.00;;;;;;5056132;28;20597;-61
2022/04/27 06:13:28;;;;;;;14.63;11.80;;;10.60;82.10;;;;;;5056759;28;20021;-63
2022/04/27 06:15:53;;;;;;;16.25;12.80;;;10.60;82.30;;;;;;5051973;28;20417;-64
2022/04/27 06:18:19;;;;;;;15.07;12.38;;;10.60;82.30;;;;;;5055503;28;20244;-63
2022/04/27 06:20:45;;;;;;;13.60;11.52;;;10.70;82.20;;;;;;5054707;28;20044;-64
2022/04/27 06:23:11;;;;;;;16.73;12.20;;;10.70;82.20;;;;;;5055182;28;20494;-64
2022/04/27 06:25:39;;;;;;;14.07;11.02;;;10.70;82.40;;;;;;5054673;28;20036;-64
2022/04/27 06:28:05;;;;;;;12.35;10.35;;;10.80;82.30;;;;;;5056348;28;20541;-64
2022/04/27 06:30:32;;;;;;;10.55;8.90;;;10.80;82.10;;;;;;5056786;28;20048;-62
2022/04/27 06:32:58;;;;;;;12.45;9.40;;;10.90;81.90;;;;;;5053828;28;20089;-64
2022/04/27 06:35:23;;;;;;;12.13;9.98;;;11.00;81.50;;;;;;5057129;28;20044;-63
2022/04/27 06:37:49;;;;;;;13.93;11.18;;;11.00;81.20;;;;;;5054343;28;20382;-63
2022/04/27 06:40:15;;;;;;;15.23;11.35;;;11.00;80.90;;;;;;5052698;28;20890;-64
2022/04/27 06:42:44;;;;;;;14.88;11.27;;;11.00;80.80;;;;;;5054968;28;20390;-63
2022/04/27 06:45:10;;;;;;;14.60;11.00;;;11.00;81.30;;;;;;5054320;28;20048;-64
2022/04/27 06:47:36;;;;;;;13.07;10.50;;;11.10;80.50;;;;;;5055172;28;20454;-63
2022/04/27 06:50:02;;;;;;;12.82;10.40;;;11.10;80.60;;;;;;5056390;28;20040;-63
2022/04/27 06:52:27;;;;;;;12.98;10.73;;;11.10;80.50;;;;;;5054610;28;20036;-65
2022/04/27 06:54:53;;;;;;;11.80;9.52;;;11.10;80.30;;;;;;5057398;28;20100;-64
2022/04/27 06:57:19;;;;;;;12.77;10.40;;;11.10;80.30;;;;;;5055640;28;20628;-63
2022/04/27 06:59:44;;;;;;;14.88;10.38;;;11.10;80.30;;;;;;5055787;28;20060;-63
2022/04/27 07:02:13;;;;;;;13.23;10.45;;;11.10;80.10;;;;;;5055865;28;20464;-64
2022/04/27 07:04:41;;;;;;;16.40;10.82;;;11.10;80.10;;;;;;5057608;28;20029;-63
2022/04/27 07:07:07;;;;;;;15.60;11.10;;;11.20;80.30;;;;;;5057996;28;20062;-64
2022/04/27 07:09:33;;;;;;;17.08;11.90;;;11.20;80.40;;;;;;5055903;28;20048;-63
2022/04/27 07:11:59;;;;;;;14.65;11.40;;;11.30;80.50;;;;;;5053853;28;20111;-63
2022/04/27 07:14:24;;;;;;;16.73;11.52;;;11.30;80.40;;;;;;5054012;28;20076;-62
2022/04/27 07:16:50;;;;;;;14.75;10.93;;;11.40;80.10;;;;;;5055858;28;20037;-64
2022/04/27 07:19:16;;;;;;;13.70;10.82;;;11.40;80.10;;;;;;5054097;28;20036;-64
2022/04/27 07:21:42;;;;;;;13.35;10.15;;;11.50;79.90;;;;;;5055741;28;20025;-64
2022/04/27 07:24:07;;;;;;;14.10;10.82;;;11.60;79.70;;;;;;5055294;28;20059;-63
2022/04/27 07:26:33;;;;;;;15.35;10.52;;;11.60;79.30;;;;;;5055050;28;20086;-64
2022/04/27 07:28:59;;;;;;;12.45;10.02;;;11.70;78.90;;;;;;5055289;28;20332;-63
2022/04/27 07:31:26;;;;;;;11.65;9.30;;;11.80;78.60;;;;;;5055266;28;20473;-63
2022/04/27 07:33:51;;;;;;;12.38;9.45;;;11.80;78.40;;;;;;5054777;28;20398;-64
2022/04/27 07:36:17;;;;;;;10.73;9.15;;;11.90;78.50;;;;;;5056398;28;20040;-64
2022/04/27 07:38:43;;;;;;;11.27;9.40;;;11.90;78.40;;;;;;5054602;28;20029;-63
2022/04/27 07:41:09;;;;;;;12.15;9.55;;;12.00;78.40;;;;;;5054923;28;20493;-64
2022/04/27 07:43:35;;;;;;;9.80;8.45;;;12.10;78.00;;;;;;5055036;28;20032;-64
2022/04/27 07:46:01;;;;;;;10.60;8.75;;;12.20;77.90;;;;;;5056681;28;20473;-64
2022/04/27 07:48:32;;;;;;;10.32;8.25;;;12.30;78.00;;;;;;5054203;28;20090;-64
2022/04/27 07:50:59;;;;;;;9.65;8.32;;;12.40;77.50;;;;;;5055233;28;20115;-64
2022/04/27 07:53:25;;;;;;;9.65;7.68;;;12.40;76.80;;;;;;5057746;28;20087;-64
2022/04/27 07:55:51;;;;;;;9.35;8.07;;;12.50;76.50;;;;;;5059775;28;20041;-65
2022/04/27 07:58:16;;;;;;;8.98;8.00;;;12.60;76.30;;;;;;5057684;28;20106;-64
2022/04/27 08:00:42;;;;;;;9.35;7.90;;;12.70;75.90;;;;;;5059462;28;20056;-64
2022/04/27 08:03:07;;;;;;;8.73;7.88;;;12.70;75.30;;;;;;5055116;28;20049;-64
2022/04/27 08:05:33;;;;;;;10.55;8.68;;;12.80;74.90;;;;;;5057838;28;20116;-64
2022/04/27 08:07:59;;;;;;;11.35;9.10;;;12.80;74.40;;;;;;5061616;28;20551;-64
2022/04/27 08:10:25;;;;;;;10.70;9.07;;;12.80;74.10;;;;;;5057180;28;20040;-64
2022/04/27 08:12:50;;;;;;;9.68;8.32;;;12.80;73.90;;;;;;5059880;28;20540;-63
2022/04/27 08:15:17;;;;;;;10.07;8.75;;;12.80;74.00;;;;;;5060151;28;20064;-64
2022/04/27 08:17:53;;;;;;;11.02;9.43;;;12.80;73.70;;;;;;5058587;28;20037;-64
2022/04/27 08:21:23;;;;;;;10.02;8.43;;;12.70;71.60;;;;;;5059230;28;20102;-64
2022/04/27 08:23:17;;;;;;;8.75;7.85;;;12.70;72.60;;;;;;5049435;28;20513;-64
2022/04/27 08:25:46;;;;;;;8.88;7.30;;;12.60;73.40;;;;;;5061155;28;20191;-64
2022/04/27 08:28:12;;;;;;;10.07;8.20;;;12.60;73.70;;;;;;5059756;28;20037;-64
2022/04/27 08:30:41;;;;;;;8.43;7.53;;;12.70;73.70;;;;;;5060538;28;20033;-64
2022/04/27 08:33:08;;;;;;;11.63;8.15;;;12.70;73.70;;;;;;5059299;28;20290;-65
2022/04/27 08:35:34;;;;;;;8.18;7.07;;;12.80;73.70;;;;;;5058094;28;20036;-65
2022/04/27 08:38:01;;;;;;;9.77;8.70;;;12.80;73.80;;;;;;5059398;28;20058;-65
2022/04/27 08:40:30;;;;;;;9.80;8.63;;;12.90;74.00;;;;;;5060312;28;20049;-64
2022/04/27 08:42:56;;;;;;;9.73;8.30;;;12.90;73.50;;;;;;5058167;28;20029;-65
2022/04/27 08:45:22;;;;;;;8.80;7.90;;;13.00;73.60;;;;;;5058622;28;20271;-64
2022/04/27 08:47:50;;;;;;;9.00;8.10;;;13.10;73.90;;;;;;5059337;28;20112;-64
2022/04/27 08:50:21;;;;;;;10.20;8.60;;;13.10;73.00;;;;;;5058348;28;20460;-65
2022/04/27 08:52:48;;;;;;;8.63;7.68;;;13.10;72.60;;;;;;5059498;28;20086;-65
2022/04/27 08:55:14;;;;;;;9.85;8.63;;;13.20;72.70;;;;;;5057009;28;20622;-64
2022/04/27 08:57:41;;;;;;;9.02;7.78;;;13.20;71.80;;;;;;5058234;28;20036;-65
2022/04/27 09:00:09;;;;;;;10.60;8.68;;;13.20;72.30;;;;;;5058946;28;20094;-64
2022/04/27 09:02:35;;;;;;;9.10;8.10;;;13.20;72.40;;;;;;5058295;28;20033;-64
2022/04/27 09:05:09;;;;;;;8.13;7.25;;;13.20;72.60;;;;;;5058817;28;20024;-65
2022/04/27 09:07:56;;;;;;;8.07;7.15;;;13.20;72.20;;;;;;5061270;28;20452;-65
2022/04/27 09:10:24;;;;;;;8.63;7.15;;;13.30;71.60;;;;;;5058838;28;20435;-62
2022/04/27 09:12:53;;;;;;;8.57;7.63;;;13.30;72.20;;;;;;5056891;28;20102;-65
2022/04/27 09:15:21;;;;;;;8.25;7.40;;;13.30;71.70;;;;;;5059420;28;20060;-64
2022/04/27 09:20:47;;;;;;;7.65;6.80;;;13.40;71.40;;;;;;5057858;28;20035;-64
2022/04/27 09:23:23;;;;;;;7.25;6.30;;;13.50;71.60;;;;;;5059322;28;20021;-64
2022/04/27 09:25:51;;;;;;;7.97;7.10;;;13.50;71.20;;;;;;5058120;28;20028;-65
2022/04/27 09:28:18;;;;;;;8.05;7.25;;;13.50;71.40;;;;;;5060215;28;20048;-64
2022/04/27 09:30:46;;;;;;;10.05;8.68;;;13.50;71.00;;;;;;5058514;28;20117;-64
2022/04/27 09:33:12;;;;;;;10.23;9.10;;;13.60;71.00;;;;;;5059744;28;20048;-65
2022/04/27 09:35:38;;;;;;;11.30;9.45;;;13.60;70.70;;;;;;5058545;28;20105;-65
2022/04/27 09:38:18;;;;;;;10.55;9.25;;;13.60;70.60;;;;;;5057701;28;20532;-65
2022/04/27 09:40:48;;;;;;;10.43;9.30;;;13.60;69.40;;;;;;5058962;28;20040;-65
2022/04/27 09:43:14;;;;;;;8.80;7.90;;;13.50;70.20;;;;;;5058215;28;20118;-65
2022/04/27 09:45:41;;;;;;;9.35;7.95;;;13.50;69.90;;;;;;5059266;28;20040;-65
2022/04/27 09:48:08;;;;;;;8.27;7.47;;;13.50;68.30;;;;;;5056916;28;20236;-65
2022/04/27 09:50:58;;;;;;;10.98;9.52;;;13.40;68.80;;;;;;5058248;28;20068;-65
2022/04/27 09:53:24;;;;;;;9.52;8.43;;;13.40;67.80;;;;;;5056468;28;20605;-65
2022/04/27 09:55:52;;;;;;;10.07;8.27;;;13.40;69.70;;;;;;5056118;28;20059;-65
2022/04/27 09:58:22;;;;;;;12.60;9.75;;;13.40;70.00;;;;;;5057479;28;20132;-65
2022/04/27 10:00:52;;;;;;;10.65;8.88;;;13.50;69.30;;;;;;5055835;28;20040;-64
2022/04/27 10:03:19;;;;;;;10.30;8.90;;;13.40;69.00;;;;;;5056764;28;20595;-66
2022/04/27 10:05:45;;;;;;;10.80;8.75;;;13.50;69.60;;;;;;5057484;28;20508;-65
2022/04/27 10:08:11;;;;;;;13.02;9.00;;;13.50;69.90;;;;;;5056026;28;20036;-66
2022/04/27 10:10:42;;;;;;;11.10;8.52;;;13.50;70.20;;;;;;5055184;28;20043;-64
2022/04/27 10:13:11;;;;;;;9.30;8.20;;;13.60;69.50;;;;;;5056768;28;20432;-65
2022/04/27 10:15:44;;;;;;;9.45;8.43;;;13.60;69.90;;;;;;5055191;28;20047;-65
2022/04/27 10:18:17;;;;;;;10.32;8.60;;;13.70;69.70;;;;;;5057014;28;20058;-65
2022/04/27 10:20:44;;;;;;;10.30;9.20;;;13.70;69.40;;;;;;5056983;28;20036;-65
2022/04/27 10:23:19;;;;;;;9.38;8.38;;;13.70;69.40;;;;;;5056597;28;20024;-65
2022/04/27 10:26:09;;;;;;;9.70;8.30;;;13.70;69.00;;;;;;5056303;28;20123;-65
2022/04/27 10:28:43;;;;;;;8.60;7.70;;;13.80;68.90;;;;;;5054930;28;20111;-65
2022/04/27 10:31:09;;;;;;;10.68;8.43;;;13.80;68.60;;;;;;5056435;28;20541;-65
2022/04/27 10:33:47;;;;;;;8.65;7.72;;;13.80;68.20;;;;;;5057234;28;20112;-65
2022/04/27 10:36:43;;;;;;;7.63;6.63;;;13.80;68.50;;;;;;5056253;28;20039;-65
2022/04/27 10:39:11;;;;;;;7.13;6.43;;;13.90;68.70;;;;;;5058041;28;20056;-65
2022/04/27 10:41:41;;;;;;;7.50;6.72;;;13.90;69.10;;;;;;5058255;28;20032;-65
2022/04/27 10:44:06;;;;;;;8.35;7.28;;;14.00;68.50;;;;;;5054630;28;20040;-64
2022/04/27 10:46:44;;;;;;;9.77;7.75;;;14.10;69.00;;;;;;5055882;28;20033;-65
2022/04/27 10:49:28;;;;;;;7.72;6.93;;;14.20;66.00;;;;;;5054419;28;20041;-65
2022/04/27 10:52:08;;;;;;;6.50;5.80;;;14.30;66.70;;;;;;5055967;28;20115;-65
2022/04/27 10:54:38;;;;;;;6.55;5.88;;;14.30;66.10;;;;;;5057424;28;20119;-65
2022/04/27 10:57:16;;;;;;;5.68;5.18;;;14.40;66.00;;;;;;5059241;28;20064;-65
2022/04/27 10:59:48;;;;;;;5.80;5.25;;;14.40;65.40;;;;;;5054997;28;20418;-66
2022/04/27 11:02:33;;;;;;;5.85;5.25;;;14.40;65.20;;;;;;5055358;28;20115;-64
2022/04/27 11:04:59;;;;;;;6.18;5.57;;;14.50;62.90;;;;;;5055447;28;20086;-65
2022/04/27 11:07:30;;;;;;;6.15;5.55;;;14.50;65.90;;;;;;5057994;28;20051;-66
2022/04/27 11:10:08;;;;;;;6.88;6.18;;;14.50;65.20;;;;;;5058231;28;20483;-65
2022/04/27 11:12:38;;;;;;;6.90;6.20;;;14.60;63.10;;;;;;5056572;28;20036;-65
2022/04/27 11:15:06;;;;;;;5.78;5.22;;;14.60;64.40;;;;;;5058273;28;20448;-65
2022/04/27 11:17:35;;;;;;;7.25;6.55;;;14.60;65.20;;;;;;5058150;28;20521;-66
2022/04/27 11:20:03;;;;;;;6.43;5.80;;;14.60;64.10;;;;;;5058843;28;20036;-65
2022/04/27 11:22:38;;;;;;;6.43;5.82;;;14.60;64.80;;;;;;5057915;28;20032;-65
2022/04/27 11:25:08;;;;;;;6.63;5.93;;;14.60;64.10;;;;;;5055755;28;20079;-66
2022/04/27 11:27:36;;;;;;;6.18;5.57;;;14.70;64.80;;;;;;5057993;28;20033;-65
2022/04/27 11:30:04;;;;;;;5.85;5.35;;;14.70;64.50;;;;;;5059876;28;20056;-64
2022/04/27 11:32:30;;;;;;;6.05;5.22;;;14.70;64.40;;;;;;5062284;28;20067;-64
2022/04/27 11:34:56;;;;;;;5.10;4.60;;;14.80;64.30;;;;;;5058667;28;20032;-64
2022/04/27 11:37:22;;;;;;;5.03;4.53;;;14.80;64.50;;;;;;5058570;28;20048;-65
2022/04/27 11:39:49;;;;;;;5.38;4.88;;;14.80;64.50;;;;;;5060156;28;20029;-65
2022/04/27 11:42:16;;;;;;;4.82;4.43;;;14.90;64.30;;;;;;5061296;28;20043;-65
2022/04/27 11:44:58;;;;;;;4.82;4.43;;;14.90;64.50;;;;;;5061728;28;20037;-65
2022/04/27 11:47:31;;;;;;;5.10;4.43;;;15.00;63.10;;;;;;5057954;28;20033;-65
2022/04/27 11:50:03;;;;;;;5.13;4.63;;;15.00;63.00;;;;;;5058731;28;20159;-65
2022/04/27 11:52:31;;;;;;;5.22;4.72;;;15.10;63.10;;;;;;5060822;28;20554;-65
2022/04/27 11:55:10;;;;;;;5.50;5.00;;;15.10;63.30;;;;;;5060582;28;20170;-65
2022/04/27 11:57:36;;;;;;;5.30;4.80;;;15.10;61.50;;;;;;5058532;28;20188;-65
2022/04/27 12:00:03;;;;;;;5.43;4.88;;;15.10;62.60;;;;;;5060884;28;20055;-66
2022/04/27 12:02:29;;;;;;;4.97;4.53;;;15.10;61.50;;;;;;5059081;28;20035;-65
2022/04/27 12:04:58;;;;;;;7.20;5.15;;;15.00;63.00;;;;;;5058814;28;20040;-66
2022/04/27 12:07:24;;;;;;;4.50;4.10;;;15.00;64.10;;;;;;5060793;28;20041;-65
2022/04/27 12:10:05;;;;;;;5.07;4.57;;;15.10;63.60;;;;;;5060503;28;20045;-65
2022/04/27 12:12:33;;;;;;;5.10;4.60;;;15.10;62.70;;;;;;5056391;28;20128;-66
2022/04/27 12:15:08;;;;;;;4.82;4.40;;;15.10;63.70;;;;;;5059081;28;20036;-65
2022/04/27 12:17:50;;;;;;;5.28;4.78;;;15.20;63.40;;;;;;5059255;28;20029;-65
2022/04/27 12:20:37;;;;;;;4.35;3.95;;;15.20;63.30;;;;;;5058300;28;20319;-65
2022/04/27 12:23:12;;;;;;;4.53;4.13;;;15.30;63.20;;;;;;5058799;28;20033;-66
2022/04/27 12:25:38;;;;;;;4.57;4.18;;;15.40;62.90;;;;;;5058447;28;21104;-66
2022/04/27 12:28:06;;;;;;;3.75;3.45;;;15.40;63.20;;;;;;5061642;28;20052;-65
2022/04/27 12:30:40;;;;;;;4.03;3.63;;;15.50;62.20;;;;;;5058314;28;20068;-64
2022/04/27 12:33:06;;;;;;;3.70;3.40;;;15.50;60.70;;;;;;5058558;28;20477;-65
2022/04/27 12:38:18;;;;;;;3.72;3.42;;;15.60;61.30;;;;;;5059103;28;20106;-65
2022/04/27 12:40:43;;;;;;;3.92;3.60;;;15.60;61.30;;;;;;5057188;28;20052;-65
2022/04/27 12:43:13;;;;;;;3.33;3.08;;;15.70;60.80;;;;;;5059752;28;20050;-65
2022/04/27 12:45:39;;;;;;;3.40;3.10;;;15.70;60.60;;;;;;5058397;28;20037;-66
2022/04/27 12:48:06;;;;;;;3.80;3.47;;;15.80;60.90;;;;;;5059248;28;20032;-66
2022/04/27 12:50:45;;;;;;;3.72;3.42;;;15.80;60.90;;;;;;5058495;28;20051;-65
2022/04/27 12:53:11;;;;;;;3.92;3.63;;;15.90;60.20;;;;;;5060830;28;20037;-65
2022/04/27 12:55:38;;;;;;;3.72;3.33;;;16.00;60.70;;;;;;5058149;28;20089;-65
2022/04/27 12:58:04;;;;;;;3.50;3.20;;;16.00;59.60;;;;;;5058489;28;20033;-66
2022/04/27 13:00:45;;;;;;;5.15;3.00;;;16.00;59.40;;;;;;5057550;28;20409;-65
2022/04/27 13:03:12;;;;;;;2.85;2.65;;;16.00;58.80;;;;;;5058135;28;20502;-65